createdAt,value
2023-02-06T00:00:55.273Z,-1.53
2023-02-06T00:03:57.176Z,-1.54
2023-02-06T00:06:59.038Z,-0.83
2023-02-06T00:10:00.893Z,-1.00
2023-02-06T00:13:02.916Z,-1.06
2023-02-06T00:16:05.150Z,-0.41
2023-02-06T00:19:07.160Z,-1.53
2023-02-06T00:22:10.335Z,-1.92
2023-02-06T00:25:12.200Z,-1.95
2023-02-06T00:28:14.172Z,-1.48
2023-02-06T00:31:17.353Z,-0.74
2023-02-06T00:34:19.420Z,-0.99
2023-02-06T00:37:21.219Z,-1.73
2023-02-06T00:40:23.081Z,-1.45
2023-02-06T00:43:25.272Z,-0.73
2023-02-06T00:46:27.185Z,-1.91
2023-02-06T00:49:29.091Z,-2.39
2023-02-06T00:52:31.147Z,-2.03
2023-02-06T00:55:33.353Z,-1.83
2023-02-06T00:58:35.355Z,-1.75
2023-02-06T01:01:37.295Z,-2.70
2023-02-06T01:04:39.160Z,-2.46
2023-02-06T01:07:42.528Z,-2.80
2023-02-06T01:10:44.484Z,-2.04
2023-02-06T01:13:46.529Z,-2.26
2023-02-06T01:16:48.464Z,-2.59
2023-02-06T01:19:50.612Z,-1.59
2023-02-06T01:22:52.564Z,-1.69
2023-02-06T01:25:54.586Z,-1.55
2023-02-06T01:28:56.536Z,-1.41
2023-02-06T01:31:58.607Z,-2.42
2023-02-06T01:35:00.454Z,-2.17
2023-02-06T01:38:02.376Z,-2.21
2023-02-06T01:41:04.528Z,-2.60
2023-02-06T01:44:24.951Z,-2.27
2023-02-06T01:47:28.537Z,-2.03
2023-02-06T01:50:30.644Z,-2.26
2023-02-06T01:53:32.622Z,-1.50
2023-02-06T01:56:40.242Z,-2.04
2023-02-06T01:59:42.669Z,-2.26
2023-02-06T02:02:45.371Z,-2.00
2023-02-06T02:05:47.248Z,-1.76
2023-02-06T02:08:49.589Z,-1.29
2023-02-06T02:11:51.443Z,-2.60
2023-02-06T02:14:53.464Z,-2.54
2023-02-06T02:17:57.771Z,-2.05
2023-02-06T02:21:18.330Z,-1.89
2023-02-06T02:24:25.813Z,-2.32
2023-02-06T02:27:45.114Z,-2.17
2023-02-06T02:30:51.618Z,-1.78
2023-02-06T02:33:53.527Z,-2.43
2023-02-06T02:36:57.675Z,-2.11
2023-02-06T02:40:00.970Z,-2.16
2023-02-06T02:43:12.894Z,-1.67
2023-02-06T02:46:20.201Z,-2.12
2023-02-06T02:49:23.639Z,-1.84
2023-02-06T02:52:25.496Z,-1.98
2023-02-06T02:55:27.776Z,-1.93
2023-02-06T02:58:30.927Z,-1.79
2023-02-06T03:01:34.122Z,-2.28
2023-02-06T03:04:49.233Z,-1.81
2023-02-06T03:08:09.935Z,-1.81
2023-02-06T03:11:18.486Z,-2.22
2023-02-06T03:14:22.234Z,-1.36
2023-02-06T03:17:32.450Z,-0.51
2023-02-06T03:20:34.374Z,-0.70
2023-02-06T03:23:38.122Z,-0.60
2023-02-06T03:26:39.974Z,-1.42
2023-02-06T03:29:41.891Z,-1.05
2023-02-06T03:32:45.756Z,-2.29
2023-02-06T03:35:47.602Z,-1.62
2023-02-06T03:38:49.773Z,-0.97
2023-02-06T03:41:51.743Z,-2.06
2023-02-06T03:45:01.399Z,-2.39
2023-02-06T03:48:04.588Z,-2.47
2023-02-06T03:51:14.698Z,-2.28
2023-02-06T03:54:17.339Z,-2.15
2023-02-06T03:57:19.436Z,-1.89
2023-02-06T04:00:21.418Z,-1.64
2023-02-06T04:03:23.231Z,-1.68
2023-02-06T04:06:25.080Z,-2.10
2023-02-06T04:09:26.977Z,-2.73
2023-02-06T04:12:28.848Z,-1.92
2023-02-06T04:15:30.727Z,-2.00
2023-02-06T04:18:32.711Z,-2.32
2023-02-06T04:21:34.545Z,-2.37
2023-02-06T04:24:39.342Z,-1.73
2023-02-06T04:27:41.252Z,-2.08
2023-02-06T04:30:43.291Z,-1.21
2023-02-06T04:33:45.244Z,-1.90
2023-02-06T04:36:49.673Z,-2.11
2023-02-06T04:39:51.735Z,-2.22
2023-02-06T04:42:53.902Z,-2.57
2023-02-06T04:45:56.055Z,-2.32
2023-02-06T04:48:57.871Z,-2.46
2023-02-06T04:51:59.885Z,-1.81
2023-02-06T04:55:01.920Z,-1.60
2023-02-06T04:58:03.798Z,-1.58
2023-02-06T05:01:05.893Z,-2.65
2023-02-06T05:04:08.040Z,-1.96
2023-02-06T05:07:09.927Z,-1.71
2023-02-06T05:10:11.959Z,-1.48
2023-02-06T05:13:14.045Z,-2.30
2023-02-06T05:16:16.752Z,-2.30
2023-02-06T05:19:18.724Z,-2.09
2023-02-06T05:22:20.573Z,-1.81
2023-02-06T05:25:22.543Z,-1.46
2023-02-06T05:28:24.487Z,-1.41
2023-02-06T05:31:26.648Z,-1.15
2023-02-06T05:34:28.536Z,-1.40
2023-02-06T05:37:30.417Z,-0.75
2023-02-06T05:40:32.374Z,-1.21
2023-02-06T05:43:34.449Z,-0.95
2023-02-06T05:46:36.676Z,-1.94
2023-02-06T05:49:38.824Z,-1.21
2023-02-06T05:52:40.679Z,-0.77
2023-02-06T05:55:42.688Z,-1.25
2023-02-06T05:58:44.723Z,-1.62
2023-02-06T06:01:46.778Z,-1.74
2023-02-06T06:04:48.730Z,-1.66
2023-02-06T06:07:50.715Z,-1.06
2023-02-06T06:10:52.652Z,-1.42
2023-02-06T06:13:54.616Z,-1.29
2023-02-06T06:16:56.525Z,-1.36
2023-02-06T06:19:58.460Z,-0.65
2023-02-06T06:23:00.319Z,-1.07
2023-02-06T06:26:02.181Z,-0.99
2023-02-06T06:29:04.003Z,-1.52
2023-02-06T06:32:06.020Z,-1.70
2023-02-06T06:35:08.317Z,-0.57
2023-02-06T06:38:10.368Z,-0.78
2023-02-06T06:41:12.780Z,-1.87
2023-02-06T06:44:15.014Z,-0.30
2023-02-06T06:47:17.171Z,-0.49
2023-02-06T06:50:19.215Z,-0.43
2023-02-06T06:53:21.479Z,-0.69
2023-02-06T06:56:23.589Z,-0.04
2023-02-06T06:59:25.480Z,-0.08
2023-02-06T07:02:28.740Z,0.14
2023-02-06T07:05:30.874Z,-0.42
2023-02-06T07:08:35.300Z,0.06
2023-02-06T07:11:37.132Z,-0.56
2023-02-06T07:14:40.698Z,0.00
2023-02-06T07:17:42.796Z,-0.42
2023-02-06T07:20:45.038Z,-0.23
2023-02-06T07:23:47.246Z,0.47
2023-02-06T07:26:51.792Z,0.23
2023-02-06T07:29:53.654Z,-0.80
2023-02-06T07:32:55.638Z,-0.76
2023-02-06T07:35:58.119Z,-0.43
2023-02-06T07:39:01.983Z,-0.31
2023-02-06T07:42:04.535Z,-0.60
2023-02-06T07:45:06.615Z,-0.25
2023-02-06T07:48:08.629Z,-0.25
2023-02-06T07:51:10.542Z,-0.24
2023-02-06T07:54:12.766Z,-1.08
2023-02-06T07:57:14.873Z,-0.04
2023-02-06T08:00:17.106Z,0.32
2023-02-06T08:03:20.962Z,-0.07
2023-02-06T08:06:24.457Z,-0.59
2023-02-06T08:09:26.398Z,-1.05
2023-02-06T08:12:31.900Z,-0.43
2023-02-06T08:15:34.234Z,-0.83
2023-02-06T08:18:36.450Z,-1.51
2023-02-06T08:21:38.717Z,-0.55
2023-02-06T08:24:40.555Z,-0.34
2023-02-06T08:27:42.538Z,-0.01
2023-02-06T08:30:45.060Z,-0.58
2023-02-06T08:33:47.832Z,-0.57
2023-02-06T08:36:49.817Z,0.47
2023-02-06T08:39:51.702Z,0.34
2023-02-06T08:42:53.721Z,-1.29
2023-02-06T08:45:59.533Z,-0.49
2023-02-06T08:49:02.649Z,-1.58
2023-02-06T08:52:04.651Z,-0.59
2023-02-06T08:55:06.773Z,-0.85
2023-02-06T08:58:09.299Z,0.62
2023-02-06T09:01:14.373Z,1.44
2023-02-06T09:04:16.295Z,0.34
2023-02-06T09:07:18.300Z,0.79
2023-02-06T09:10:27.429Z,1.16
2023-02-06T09:13:31.141Z,1.58
2023-02-06T09:16:33.740Z,1.23
2023-02-06T09:19:35.582Z,1.33
2023-02-06T09:22:37.628Z,2.19
2023-02-06T09:25:39.867Z,0.34
2023-02-06T09:28:42.341Z,0.61
2023-02-06T09:31:45.225Z,1.54
2023-02-06T09:34:48.429Z,0.83
2023-02-06T09:37:51.066Z,-0.21
2023-02-06T09:40:53.491Z,0.67
2023-02-06T09:44:04.350Z,2.06
2023-02-06T09:47:10.420Z,1.74
2023-02-06T09:50:18.825Z,1.26
2023-02-06T09:53:30.544Z,1.64
2023-02-06T09:56:52.827Z,1.16
2023-02-06T09:59:56.771Z,0.93
2023-02-06T10:03:12.532Z,1.61
2023-02-06T10:06:16.352Z,1.94
2023-02-06T10:09:22.515Z,2.60
2023-02-06T10:12:31.516Z,1.74
2023-02-06T10:15:35.739Z,0.86
2023-02-06T10:18:54.270Z,1.49
2023-02-06T10:22:01.757Z,1.92
2023-02-06T10:25:21.205Z,2.31
2023-02-06T10:28:27.671Z,2.38
2023-02-06T10:31:29.763Z,2.98
2023-02-06T10:34:38.077Z,3.47
2023-02-06T10:37:58.472Z,3.78
2023-02-06T10:41:12.934Z,5.24
2023-02-06T10:44:25.376Z,4.12
2023-02-06T10:47:39.673Z,3.37
2023-02-06T10:50:47.867Z,5.22
2023-02-06T10:54:13.275Z,6.17
2023-02-06T10:57:19.134Z,4.67
2023-02-06T11:00:25.342Z,2.66
2023-02-06T11:03:30.565Z,5.37
2023-02-06T11:06:32.472Z,5.08
2023-02-06T11:09:34.539Z,3.66
2023-02-06T11:12:38.332Z,3.46
2023-02-06T11:15:46.159Z,4.68
2023-02-06T11:18:48.887Z,5.00
2023-02-06T11:21:54.937Z,4.74
2023-02-06T11:25:01.447Z,4.45
2023-02-06T11:28:03.514Z,5.55
2023-02-06T11:31:06.423Z,3.48
2023-02-06T11:34:18.200Z,5.06
2023-02-06T11:37:39.413Z,5.27
2023-02-06T11:40:41.556Z,6.94
2023-02-06T11:43:43.987Z,4.28
2023-02-06T11:46:45.946Z,5.24
2023-02-06T11:49:48.079Z,5.04
2023-02-06T11:52:52.418Z,5.19
2023-02-06T11:55:59.141Z,4.35
2023-02-06T11:59:16.763Z,5.66
2023-02-06T12:02:25.706Z,5.76
2023-02-06T12:05:29.172Z,6.04
2023-02-06T12:08:36.973Z,8.10
2023-02-06T12:11:57.700Z,8.36
2023-02-06T12:15:23.564Z,9.06
2023-02-06T12:18:36.828Z,6.50
2023-02-06T12:21:43.049Z,5.51
2023-02-06T12:24:45.825Z,5.82
2023-02-06T12:27:47.894Z,7.03
2023-02-06T12:30:57.232Z,7.49
2023-02-06T12:34:01.671Z,4.78
2023-02-06T12:37:15.694Z,4.78
2023-02-06T12:40:26.550Z,5.14
2023-02-06T12:43:28.970Z,3.35
2023-02-06T12:46:31.275Z,4.57
2023-02-06T12:49:35.916Z,5.47
2023-02-06T12:52:42.220Z,4.92
2023-02-06T12:55:44.500Z,5.51
2023-02-06T12:58:51.782Z,8.35
2023-02-06T13:02:00.777Z,7.69
2023-02-06T13:05:05.916Z,6.08
2023-02-06T13:08:10.117Z,7.34
2023-02-06T13:11:17.967Z,5.87
2023-02-06T13:14:30.628Z,7.47
2023-02-06T13:17:32.421Z,5.89
2023-02-06T13:20:34.594Z,6.31
2023-02-06T13:23:36.563Z,6.96
2023-02-06T13:26:51.731Z,10.27
2023-02-06T13:29:56.755Z,6.11
2023-02-06T13:32:59.871Z,6.85
2023-02-06T13:36:06.749Z,11.73
2023-02-06T13:39:25.690Z,10.43
2023-02-06T13:42:29.924Z,9.36
2023-02-06T13:45:37.011Z,7.96
2023-02-06T13:48:46.714Z,9.16
2023-02-06T13:51:50.351Z,10.72
2023-02-06T13:54:52.365Z,11.47
2023-02-06T13:58:13.174Z,13.83
2023-02-06T14:01:20.264Z,8.96
2023-02-06T14:04:25.146Z,9.73
2023-02-06T14:07:42.606Z,8.64
2023-02-06T14:10:56.812Z,6.28
2023-02-06T14:14:14.863Z,4.72
2023-02-06T14:17:25.884Z,5.51
2023-02-06T14:20:46.679Z,6.13
2023-02-06T14:23:59.745Z,4.21
2023-02-06T14:27:14.311Z,5.02
2023-02-06T14:30:22.405Z,5.58
2023-02-06T14:33:35.270Z,6.95
2023-02-06T14:37:06.599Z,7.09
2023-02-06T14:40:34.862Z,6.69
2023-02-06T14:43:37.427Z,5.86
2023-02-06T14:46:39.933Z,4.27
2023-02-06T14:49:41.832Z,3.63
2023-02-06T14:52:44.042Z,3.98
2023-02-06T14:55:47.108Z,4.73
2023-02-06T14:58:49.424Z,3.05
2023-02-06T15:01:52.010Z,2.38
2023-02-06T15:04:54.191Z,3.07
2023-02-06T15:07:57.418Z,2.29
2023-02-06T15:11:03.522Z,3.39
2023-02-06T15:14:06.786Z,2.91
2023-02-06T15:17:17.739Z,2.18
2023-02-06T15:20:22.860Z,1.88
2023-02-06T15:23:48.575Z,1.45
2023-02-06T15:27:26.130Z,2.02
2023-02-06T15:30:28.134Z,1.62
2023-02-06T15:33:33.349Z,1.38
2023-02-06T15:36:37.857Z,0.74
2023-02-06T15:39:40.507Z,1.62
2023-02-06T15:42:42.635Z,2.23
2023-02-06T15:45:44.855Z,1.14
2023-02-06T15:48:47.068Z,1.49
2023-02-06T15:51:51.755Z,0.81
2023-02-06T15:54:57.862Z,1.01
2023-02-06T15:58:00.595Z,1.08
2023-02-06T16:01:02.768Z,1.53
2023-02-06T16:04:06.399Z,1.75
2023-02-06T16:07:13.084Z,1.43
2023-02-06T16:10:22.925Z,2.09
2023-02-06T16:13:25.478Z,2.36
2023-02-06T16:16:27.801Z,0.83
2023-02-06T16:19:38.119Z,1.64
2023-02-06T16:22:40.301Z,1.31
2023-02-06T16:25:42.328Z,1.34
2023-02-06T16:29:00.238Z,0.95
2023-02-06T16:32:19.544Z,0.92
2023-02-06T16:35:21.864Z,1.25
2023-02-06T16:38:24.063Z,1.02
2023-02-06T16:41:27.319Z,1.26
2023-02-06T16:44:43.783Z,1.83
2023-02-06T16:47:47.097Z,2.30
2023-02-06T16:50:49.116Z,2.37
2023-02-06T16:53:51.298Z,2.79
2023-02-06T16:56:53.529Z,2.10
2023-02-06T16:59:55.637Z,2.29
2023-02-06T17:02:57.668Z,1.42
2023-02-06T17:05:59.830Z,1.21
2023-02-06T17:09:04.431Z,1.77
2023-02-06T17:12:06.765Z,1.59
2023-02-06T17:15:10.303Z,2.01
2023-02-06T17:18:12.888Z,1.12
2023-02-06T17:21:16.986Z,1.87
2023-02-06T17:24:19.225Z,1.14
2023-02-06T17:27:21.835Z,2.26
2023-02-06T17:30:24.238Z,1.77
2023-02-06T17:33:26.386Z,1.77
2023-02-06T17:36:33.241Z,1.17
2023-02-06T17:39:35.809Z,0.98
2023-02-06T17:42:37.722Z,1.31
2023-02-06T17:45:39.901Z,0.65
2023-02-06T17:48:43.701Z,1.18
2023-02-06T17:51:45.828Z,1.44
2023-02-06T17:54:47.978Z,1.17
2023-02-06T17:57:50.520Z,1.32
2023-02-06T18:00:52.408Z,1.44
2023-02-06T18:03:54.768Z,1.11
2023-02-06T18:06:56.660Z,2.24
2023-02-06T18:09:58.664Z,0.95
2023-02-06T18:13:00.595Z,0.62
2023-02-06T18:16:02.695Z,1.41
2023-02-06T18:19:04.803Z,0.72
2023-02-06T18:22:06.709Z,0.10
2023-02-06T18:25:10.202Z,0.47
2023-02-06T18:28:14.056Z,-0.03
2023-02-06T18:31:23.938Z,0.69
2023-02-06T18:34:25.966Z,1.07
2023-02-06T18:37:27.961Z,0.68
2023-02-06T18:40:29.871Z,0.45
2023-02-06T18:43:31.993Z,0.37
2023-02-06T18:46:34.073Z,1.15
2023-02-06T18:49:36.200Z,1.06
2023-02-06T18:52:40.055Z,0.18
2023-02-06T18:55:42.859Z,0.71
2023-02-06T18:58:44.915Z,0.63
2023-02-06T19:01:47.460Z,0.87
2023-02-06T19:04:49.480Z,1.44
2023-02-06T19:07:53.067Z,0.77
2023-02-06T19:10:56.686Z,0.36
2023-02-06T19:13:58.726Z,0.17
2023-02-06T19:17:00.818Z,0.28
2023-02-06T19:20:02.913Z,0.21
2023-02-06T19:23:04.841Z,-0.06
2023-02-06T19:26:07.501Z,0.09
2023-02-06T19:29:09.574Z,0.42
2023-02-06T19:32:11.640Z,-0.45
2023-02-06T19:35:14.740Z,0.91
2023-02-06T19:38:16.643Z,0.19
2023-02-06T19:41:23.884Z,0.68
2023-02-06T19:44:27.160Z,0.74
2023-02-06T19:47:29.052Z,-0.52
2023-02-06T19:50:31.096Z,-0.62
2023-02-06T19:53:34.336Z,0.50
2023-02-06T19:56:40.440Z,-0.09
2023-02-06T19:59:42.527Z,-0.53
2023-02-06T20:02:44.704Z,-0.16
2023-02-06T20:05:46.598Z,0.24
2023-02-06T20:08:48.816Z,0.34
2023-02-06T20:11:50.777Z,0.34
2023-02-06T20:14:52.710Z,0.11
2023-02-06T20:17:54.899Z,1.08
2023-02-06T20:20:56.805Z,0.11
2023-02-06T20:24:00.543Z,0.74
2023-02-06T20:27:03.419Z,1.03
2023-02-06T20:30:05.558Z,0.52
2023-02-06T20:33:07.435Z,0.70
2023-02-06T20:36:10.553Z,-0.17
2023-02-06T20:39:13.016Z,0.78
2023-02-06T20:42:15.767Z,0.94
2023-02-06T20:45:18.085Z,1.01
2023-02-06T20:48:19.950Z,-0.47
2023-02-06T20:51:21.893Z,-0.28
2023-02-06T20:54:24.039Z,0.33
2023-02-06T20:57:26.020Z,0.23
2023-02-06T21:00:28.162Z,0.71
2023-02-06T21:03:30.565Z,0.17
2023-02-06T21:06:33.550Z,0.89
2023-02-06T21:09:35.467Z,-0.66
2023-02-06T21:12:37.512Z,-0.38
2023-02-06T21:15:39.600Z,-0.10
2023-02-06T21:18:42.858Z,0.84
2023-02-06T21:21:46.311Z,0.48
2023-02-06T21:24:48.551Z,1.05
2023-02-06T21:27:50.425Z,1.22
2023-02-06T21:30:52.344Z,0.75
2023-02-06T21:33:54.274Z,0.42
2023-02-06T21:36:56.178Z,0.13
2023-02-06T21:39:58.457Z,0.64
2023-02-06T21:43:00.685Z,-0.73
2023-02-06T21:46:03.078Z,-0.27
2023-02-06T21:49:06.490Z,0.14
2023-02-06T21:52:08.368Z,0.86
2023-02-06T21:55:10.300Z,-0.06
2023-02-06T21:58:14.924Z,-0.40
2023-02-06T22:01:21.801Z,-0.09
2023-02-06T22:04:23.834Z,0.58
2023-02-06T22:07:25.787Z,-0.14
2023-02-06T22:10:27.915Z,0.21
2023-02-06T22:13:29.829Z,0.35
2023-02-06T22:16:31.865Z,0.41
2023-02-06T22:19:35.015Z,-0.08
2023-02-06T22:22:38.706Z,-0.50
2023-02-06T22:25:45.977Z,-0.22
2023-02-06T22:28:48.073Z,0.64
2023-02-06T22:31:50.050Z,0.30
2023-02-06T22:34:53.829Z,0.08
2023-02-06T22:37:56.364Z,0.43
2023-02-06T22:41:02.280Z,0.42
2023-02-06T22:44:04.203Z,1.18
2023-02-06T22:47:06.066Z,0.90
2023-02-06T22:50:08.136Z,0.54
2023-02-06T22:53:29.500Z,0.33
2023-02-06T22:56:35.189Z,0.61
2023-02-06T22:59:37.116Z,-0.46
2023-02-06T23:02:39.020Z,-0.55
2023-02-06T23:05:41.020Z,-0.40
2023-02-06T23:08:43.903Z,-1.17
2023-02-06T23:11:46.078Z,-1.24
2023-02-06T23:14:48.203Z,-1.07
2023-02-06T23:17:50.179Z,-1.39
2023-02-06T23:21:02.659Z,-1.13
2023-02-06T23:24:05.199Z,-1.96
2023-02-06T23:27:07.086Z,-1.55
2023-02-06T23:30:09.513Z,-1.26
2023-02-06T23:33:11.451Z,-1.46
2023-02-06T23:36:15.200Z,-1.67
2023-02-06T23:39:17.163Z,-1.30
2023-02-06T23:42:19.265Z,-1.81
2023-02-06T23:45:21.245Z,-1.42
2023-02-06T23:48:23.246Z,-1.62
2023-02-06T23:51:25.390Z,-1.71
2023-02-06T23:54:27.283Z,-0.99
2023-02-06T23:57:29.119Z,-1.09
